sensor_id;sensor_type;location;lat;lon;timestamp;P1;durP1;ratioP1;P2;durP2;ratioP2
35981;SDS011;22058;0.000;0.000;2023-09-18T00:00:42;1.98;;;1.88;;
35981;SDS011;22058;0.000;0.000;2023-09-18T00:03:09;1.88;;;1.77;;
35981;SDS011;22058;0.000;0.000;2023-09-18T00:05:35;1.95;;;1.85;;
35981;SDS011;22058;0.000;0.000;2023-09-18T00:08:01;1.42;;;1.42;;
35981;SDS011;22058;0.000;0.000;2023-09-18T00:10:27;1.60;;;1.60;;
35981;SDS011;22058;0.000;0.000;2023-09-18T00:12:55;1.70;;;1.60;;
35981;SDS011;22058;0.000;0.000;2023-09-18T00:15:21;1.80;;;1.70;;
35981;SDS011;22058;0.000;0.000;2023-09-18T00:17:48;2.13;;;2.03;;
35981;SDS011;22058;0.000;0.000;2023-09-18T00:20:14;1.73;;;1.63;;
35981;SDS011;22058;0.000;0.000;2023-09-18T00:22:42;1.83;;;1.73;;
35981;SDS011;22058;0.000;0.000;2023-09-18T00:25:09;1.70;;;1.60;;
35981;SDS011;22058;0.000;0.000;2023-09-18T00:27:35;1.80;;;1.70;;
35981;SDS011;22058;0.000;0.000;2023-09-18T00:30:01;1.85;;;1.75;;
35981;SDS011;22058;0.000;0.000;2023-09-18T00:32:28;1.90;;;1.80;;
35981;SDS011;22058;0.000;0.000;2023-09-18T00:34:54;1.75;;;1.65;;
35981;SDS011;22058;0.000;0.000;2023-09-18T00:37:20;2.10;;;2.00;;
35981;SDS011;22058;0.000;0.000;2023-09-18T00:39:46;1.80;;;1.70;;
35981;SDS011;22058;0.000;0.000;2023-09-18T00:42:12;1.85;;;1.75;;
35981;SDS011;22058;0.000;0.000;2023-09-18T00:44:39;1.70;;;1.60;;
35981;SDS011;22058;0.000;0.000;2023-09-18T00:47:08;1.55;;;1.45;;
35981;SDS011;22058;0.000;0.000;2023-09-18T00:49:35;1.80;;;1.70;;
35981;SDS011;22058;0.000;0.000;2023-09-18T00:52:02;1.73;;;1.63;;
35981;SDS011;22058;0.000;0.000;2023-09-18T00:54:29;1.60;;;1.50;;
35981;SDS011;22058;0.000;0.000;2023-09-18T00:56:55;1.80;;;1.70;;
35981;SDS011;22058;0.000;0.000;2023-09-18T00:59:21;1.52;;;1.52;;
35981;SDS011;22058;0.000;0.000;2023-09-18T01:01:48;1.48;;;1.48;;
35981;SDS011;22058;0.000;0.000;2023-09-18T01:04:15;1.70;;;1.60;;
35981;SDS011;22058;0.000;0.000;2023-09-18T01:06:41;1.60;;;1.50;;
35981;SDS011;22058;0.000;0.000;2023-09-18T01:09:08;1.98;;;1.88;;
35981;SDS011;22058;0.000;0.000;2023-09-18T01:14:29;1.65;;;1.60;;
35981;SDS011;22058;0.000;0.000;2023-09-18T01:16:57;1.83;;;1.73;;
35981;SDS011;22058;0.000;0.000;2023-09-18T01:19:37;1.95;;;1.85;;
35981;SDS011;22058;0.000;0.000;2023-09-18T01:22:04;2.20;;;2.10;;
35981;SDS011;22058;0.000;0.000;2023-09-18T01:24:32;1.38;;;1.38;;
35981;SDS011;22058;0.000;0.000;2023-09-18T01:26:58;2.00;;;1.90;;
35981;SDS011;22058;0.000;0.000;2023-09-18T01:29:24;1.85;;;1.75;;
35981;SDS011;22058;0.000;0.000;2023-09-18T01:31:50;1.48;;;1.48;;
35981;SDS011;22058;0.000;0.000;2023-09-18T01:34:18;1.77;;;1.67;;
35981;SDS011;22058;0.000;0.000;2023-09-18T01:36:46;1.45;;;1.45;;
35981;SDS011;22058;0.000;0.000;2023-09-18T01:39:12;1.67;;;1.58;;
35981;SDS011;22058;0.000;0.000;2023-09-18T01:41:38;2.00;;;1.90;;
35981;SDS011;22058;0.000;0.000;2023-09-18T01:44:06;1.38;;;1.38;;
35981;SDS011;22058;0.000;0.000;2023-09-18T01:46:32;1.52;;;1.52;;
35981;SDS011;22058;0.000;0.000;2023-09-18T01:49:01;1.60;;;1.50;;
35981;SDS011;22058;0.000;0.000;2023-09-18T01:51:27;1.30;;;1.30;;
35981;SDS011;22058;0.000;0.000;2023-09-18T01:53:53;1.70;;;1.60;;
35981;SDS011;22058;0.000;0.000;2023-09-18T01:56:20;1.27;;;1.27;;
35981;SDS011;22058;0.000;0.000;2023-09-18T01:58:46;1.70;;;1.60;;
35981;SDS011;22058;0.000;0.000;2023-09-18T02:01:12;1.60;;;1.50;;
35981;SDS011;22058;0.000;0.000;2023-09-18T02:03:38;2.10;;;2.00;;
35981;SDS011;22058;0.000;0.000;2023-09-18T02:06:09;1.63;;;1.60;;
35981;SDS011;22058;0.000;0.000;2023-09-18T02:08:35;1.85;;;1.75;;
35981;SDS011;22058;0.000;0.000;2023-09-18T02:11:02;1.67;;;1.58;;
35981;SDS011;22058;0.000;0.000;2023-09-18T02:13:29;1.40;;;1.40;;
35981;SDS011;22058;0.000;0.000;2023-09-18T02:15:56;1.50;;;1.50;;
35981;SDS011;22058;0.000;0.000;2023-09-18T02:18:22;1.70;;;1.60;;
35981;SDS011;22058;0.000;0.000;2023-09-18T02:20:48;1.70;;;1.60;;
35981;SDS011;22058;0.000;0.000;2023-09-18T02:23:17;1.35;;;1.35;;
35981;SDS011;22058;0.000;0.000;2023-09-18T02:25:44;1.70;;;1.60;;
35981;SDS011;22058;0.000;0.000;2023-09-18T02:28:10;1.42;;;1.42;;
35981;SDS011;22058;0.000;0.000;2023-09-18T02:30:36;1.67;;;1.58;;
35981;SDS011;22058;0.000;0.000;2023-09-18T02:33:03;1.50;;;1.40;;
35981;SDS011;22058;0.000;0.000;2023-09-18T02:35:29;1.63;;;1.52;;
35981;SDS011;22058;0.000;0.000;2023-09-18T02:37:55;1.33;;;1.33;;
35981;SDS011;22058;0.000;0.000;2023-09-18T02:40:22;1.80;;;1.70;;
35981;SDS011;22058;0.000;0.000;2023-09-18T02:42:48;1.70;;;1.60;;
35981;SDS011;22058;0.000;0.000;2023-09-18T02:45:14;1.60;;;1.50;;
35981;SDS011;22058;0.000;0.000;2023-09-18T02:47:40;1.58;;;1.52;;
35981;SDS011;22058;0.000;0.000;2023-09-18T02:50:07;1.73;;;1.63;;
35981;SDS011;22058;0.000;0.000;2023-09-18T02:52:35;1.80;;;1.70;;
35981;SDS011;22058;0.000;0.000;2023-09-18T02:55:02;1.60;;;1.52;;
35981;SDS011;22058;0.000;0.000;2023-09-18T02:57:28;1.73;;;1.63;;
35981;SDS011;22058;0.000;0.000;2023-09-18T02:59:54;1.65;;;1.55;;
35981;SDS011;22058;0.000;0.000;2023-09-18T03:02:20;1.30;;;1.30;;
35981;SDS011;22058;0.000;0.000;2023-09-18T03:04:46;1.40;;;1.30;;
35981;SDS011;22058;0.000;0.000;2023-09-18T03:07:13;1.58;;;1.55;;
35981;SDS011;22058;0.000;0.000;2023-09-18T03:09:39;1.63;;;1.58;;
35981;SDS011;22058;0.000;0.000;2023-09-18T03:12:05;1.50;;;1.40;;
35981;SDS011;22058;0.000;0.000;2023-09-18T03:14:31;1.42;;;1.40;;
35981;SDS011;22058;0.000;0.000;2023-09-18T03:16:57;1.35;;;1.27;;
35981;SDS011;22058;0.000;0.000;2023-09-18T03:19:24;1.40;;;1.40;;
35981;SDS011;22058;0.000;0.000;2023-09-18T03:21:51;1.80;;;1.70;;
35981;SDS011;22058;0.000;0.000;2023-09-18T03:24:18;1.65;;;1.55;;
35981;SDS011;22058;0.000;0.000;2023-09-18T03:26:44;1.70;;;1.60;;
35981;SDS011;22058;0.000;0.000;2023-09-18T03:29:10;1.60;;;1.50;;
35981;SDS011;22058;0.000;0.000;2023-09-18T03:31:36;1.60;;;1.50;;
35981;SDS011;22058;0.000;0.000;2023-09-18T03:34:02;1.70;;;1.60;;
35981;SDS011;22058;0.000;0.000;2023-09-18T03:36:28;1.58;;;1.48;;
35981;SDS011;22058;0.000;0.000;2023-09-18T03:38:54;1.60;;;1.55;;
35981;SDS011;22058;0.000;0.000;2023-09-18T03:41:20;1.40;;;1.33;;
35981;SDS011;22058;0.000;0.000;2023-09-18T03:43:47;1.98;;;1.88;;
35981;SDS011;22058;0.000;0.000;2023-09-18T03:46:14;1.27;;;1.20;;
35981;SDS011;22058;0.000;0.000;2023-09-18T03:48:40;1.90;;;1.80;;
35981;SDS011;22058;0.000;0.000;2023-09-18T03:51:06;1.65;;;1.55;;
35981;SDS011;22058;0.000;0.000;2023-09-18T03:53:37;1.88;;;1.77;;
35981;SDS011;22058;0.000;0.000;2023-09-18T03:56:03;1.85;;;1.75;;
35981;SDS011;22058;0.000;0.000;2023-09-18T03:58:29;1.55;;;1.55;;
35981;SDS011;22058;0.000;0.000;2023-09-18T04:00:56;1.52;;;1.42;;
35981;SDS011;22058;0.000;0.000;2023-09-18T04:03:22;1.73;;;1.63;;
35981;SDS011;22058;0.000;0.000;2023-09-18T04:05:49;1.80;;;1.70;;
35981;SDS011;22058;0.000;0.000;2023-09-18T04:08:15;1.60;;;1.50;;
35981;SDS011;22058;0.000;0.000;2023-09-18T04:10:41;1.83;;;1.73;;
35981;SDS011;22058;0.000;0.000;2023-09-18T04:13:07;1.63;;;1.52;;
35981;SDS011;22058;0.000;0.000;2023-09-18T04:15:33;1.40;;;1.40;;
35981;SDS011;22058;0.000;0.000;2023-09-18T04:18:03;1.58;;;1.48;;
35981;SDS011;22058;0.000;0.000;2023-09-18T04:20:30;1.48;;;1.48;;
35981;SDS011;22058;0.000;0.000;2023-09-18T04:25:59;1.83;;;1.35;;
35981;SDS011;22058;0.000;0.000;2023-09-18T04:28:26;1.30;;;1.30;;
35981;SDS011;22058;0.000;0.000;2023-09-18T04:30:53;1.90;;;1.80;;
35981;SDS011;22058;0.000;0.000;2023-09-18T04:33:19;1.63;;;1.52;;
35981;SDS011;22058;0.000;0.000;2023-09-18T04:35:46;2.33;;;1.90;;
35981;SDS011;22058;0.000;0.000;2023-09-18T04:38:12;1.58;;;1.48;;
35981;SDS011;22058;0.000;0.000;2023-09-18T04:40:40;1.67;;;1.58;;
35981;SDS011;22058;0.000;0.000;2023-09-18T04:43:06;1.80;;;1.70;;
35981;SDS011;22058;0.000;0.000;2023-09-18T04:45:32;4.00;;;1.67;;
35981;SDS011;22058;0.000;0.000;2023-09-18T04:47:58;3.30;;;1.48;;
35981;SDS011;22058;0.000;0.000;2023-09-18T04:50:25;3.15;;;1.58;;
35981;SDS011;22058;0.000;0.000;2023-09-18T04:52:54;1.63;;;1.50;;
35981;SDS011;22058;0.000;0.000;2023-09-18T04:55:22;3.42;;;1.33;;
35981;SDS011;22058;0.000;0.000;2023-09-18T04:57:48;8.70;;;1.92;;
35981;SDS011;22058;0.000;0.000;2023-09-18T05:00:15;7.45;;;1.70;;
35981;SDS011;22058;0.000;0.000;2023-09-18T05:02:42;2.90;;;1.67;;
35981;SDS011;22058;0.000;0.000;2023-09-18T05:05:08;6.85;;;1.77;;
35981;SDS011;22058;0.000;0.000;2023-09-18T05:07:35;8.50;;;2.42;;
35981;SDS011;22058;0.000;0.000;2023-09-18T05:10:01;7.38;;;2.00;;
35981;SDS011;22058;0.000;0.000;2023-09-18T05:12:29;8.93;;;2.10;;
35981;SDS011;22058;0.000;0.000;2023-09-18T05:14:55;9.57;;;2.45;;
35981;SDS011;22058;0.000;0.000;2023-09-18T05:17:27;4.43;;;1.90;;
35981;SDS011;22058;0.000;0.000;2023-09-18T05:20:06;5.93;;;1.65;;
35981;SDS011;22058;0.000;0.000;2023-09-18T05:22:32;11.50;;;1.90;;
35981;SDS011;22058;0.000;0.000;2023-09-18T05:24:59;8.50;;;2.72;;
35981;SDS011;22058;0.000;0.000;2023-09-18T05:27:26;15.65;;;2.20;;
35981;SDS011;22058;0.000;0.000;2023-09-18T05:29:52;5.53;;;1.73;;
35981;SDS011;22058;0.000;0.000;2023-09-18T05:32:18;8.68;;;1.70;;
35981;SDS011;22058;0.000;0.000;2023-09-18T05:34:44;8.35;;;2.20;;
35981;SDS011;22058;0.000;0.000;2023-09-18T05:37:10;7.72;;;2.85;;
35981;SDS011;22058;0.000;0.000;2023-09-18T05:39:36;5.55;;;1.80;;
35981;SDS011;22058;0.000;0.000;2023-09-18T05:42:02;10.05;;;2.33;;
35981;SDS011;22058;0.000;0.000;2023-09-18T05:44:29;5.05;;;1.58;;
35981;SDS011;22058;0.000;0.000;2023-09-18T05:46:55;16.77;;;2.83;;
35981;SDS011;22058;0.000;0.000;2023-09-18T05:49:21;8.52;;;2.10;;
35981;SDS011;22058;0.000;0.000;2023-09-18T05:51:47;4.20;;;2.25;;
35981;SDS011;22058;0.000;0.000;2023-09-18T05:54:13;11.25;;;2.88;;
35981;SDS011;22058;0.000;0.000;2023-09-18T05:56:40;12.77;;;2.38;;
35981;SDS011;22058;0.000;0.000;2023-09-18T05:59:06;9.60;;;2.55;;
35981;SDS011;22058;0.000;0.000;2023-09-18T06:04:08;5.63;;;1.75;;
35981;SDS011;22058;0.000;0.000;2023-09-18T06:06:35;6.03;;;2.08;;
35981;SDS011;22058;0.000;0.000;2023-09-18T06:09:01;7.07;;;2.42;;
35981;SDS011;22058;0.000;0.000;2023-09-18T06:11:27;7.80;;;3.55;;
35981;SDS011;22058;0.000;0.000;2023-09-18T06:13:54;3.00;;;2.10;;
35981;SDS011;22058;0.000;0.000;2023-09-18T06:16:20;11.13;;;2.40;;
35981;SDS011;22058;0.000;0.000;2023-09-18T06:18:46;14.38;;;2.38;;
35981;SDS011;22058;0.000;0.000;2023-09-18T06:21:12;11.40;;;2.10;;
35981;SDS011;22058;0.000;0.000;2023-09-18T06:23:38;4.78;;;2.05;;
35981;SDS011;22058;0.000;0.000;2023-09-18T06:26:04;3.00;;;2.53;;
35981;SDS011;22058;0.000;0.000;2023-09-18T06:28:30;18.23;;;2.80;;
35981;SDS011;22058;0.000;0.000;2023-09-18T06:30:57;4.10;;;1.90;;
35981;SDS011;22058;0.000;0.000;2023-09-18T06:33:23;7.65;;;1.90;;
35981;SDS011;22058;0.000;0.000;2023-09-18T06:35:49;2.85;;;1.92;;
35981;SDS011;22058;0.000;0.000;2023-09-18T06:38:17;3.78;;;1.80;;
35981;SDS011;22058;0.000;0.000;2023-09-18T06:40:43;3.47;;;1.90;;
35981;SDS011;22058;0.000;0.000;2023-09-18T06:43:09;4.85;;;1.80;;
35981;SDS011;22058;0.000;0.000;2023-09-18T06:45:35;5.43;;;1.88;;
35981;SDS011;22058;0.000;0.000;2023-09-18T06:48:03;5.88;;;2.28;;
35981;SDS011;22058;0.000;0.000;2023-09-18T06:50:29;8.30;;;1.98;;
35981;SDS011;22058;0.000;0.000;2023-09-18T06:52:56;7.43;;;2.38;;
35981;SDS011;22058;0.000;0.000;2023-09-18T06:55:22;7.60;;;2.65;;
35981;SDS011;22058;0.000;0.000;2023-09-18T06:57:48;10.48;;;2.20;;
35981;SDS011;22058;0.000;0.000;2023-09-18T07:00:17;9.27;;;2.65;;
35981;SDS011;22058;0.000;0.000;2023-09-18T07:02:46;4.97;;;1.90;;
35981;SDS011;22058;0.000;0.000;2023-09-18T07:05:14;7.50;;;2.85;;
35981;SDS011;22058;0.000;0.000;2023-09-18T07:07:40;9.02;;;2.28;;
35981;SDS011;22058;0.000;0.000;2023-09-18T07:10:06;8.73;;;2.00;;
35981;SDS011;22058;0.000;0.000;2023-09-18T07:12:33;11.60;;;3.25;;
35981;SDS011;22058;0.000;0.000;2023-09-18T07:15:02;6.47;;;2.20;;
35981;SDS011;22058;0.000;0.000;2023-09-18T07:17:29;7.28;;;2.38;;
35981;SDS011;22058;0.000;0.000;2023-09-18T07:19:55;7.43;;;2.45;;
35981;SDS011;22058;0.000;0.000;2023-09-18T07:22:22;6.32;;;2.20;;
35981;SDS011;22058;0.000;0.000;2023-09-18T07:24:48;13.68;;;2.40;;
35981;SDS011;22058;0.000;0.000;2023-09-18T07:27:14;5.65;;;1.98;;
35981;SDS011;22058;0.000;0.000;2023-09-18T07:29:40;5.70;;;2.50;;
35981;SDS011;22058;0.000;0.000;2023-09-18T07:32:06;4.30;;;2.38;;
35981;SDS011;22058;0.000;0.000;2023-09-18T07:34:34;7.00;;;2.45;;
35981;SDS011;22058;0.000;0.000;2023-09-18T07:37:00;11.98;;;2.78;;
35981;SDS011;22058;0.000;0.000;2023-09-18T07:39:26;12.05;;;3.28;;
35981;SDS011;22058;0.000;0.000;2023-09-18T07:41:52;5.43;;;2.65;;
35981;SDS011;22058;0.000;0.000;2023-09-18T07:44:21;15.35;;;3.53;;
35981;SDS011;22058;0.000;0.000;2023-09-18T07:46:47;5.93;;;2.42;;
35981;SDS011;22058;0.000;0.000;2023-09-18T07:49:13;6.63;;;4.88;;
35981;SDS011;22058;0.000;0.000;2023-09-18T07:51:39;10.70;;;2.70;;
35981;SDS011;22058;0.000;0.000;2023-09-18T07:54:06;13.63;;;2.75;;
35981;SDS011;22058;0.000;0.000;2023-09-18T07:56:32;8.75;;;2.17;;
35981;SDS011;22058;0.000;0.000;2023-09-18T07:58:59;29.15;;;3.53;;
35981;SDS011;22058;0.000;0.000;2023-09-18T08:01:26;20.05;;;3.00;;
35981;SDS011;22058;0.000;0.000;2023-09-18T08:03:52;10.90;;;2.70;;
35981;SDS011;22058;0.000;0.000;2023-09-18T08:06:19;12.80;;;3.33;;
35981;SDS011;22058;0.000;0.000;2023-09-18T08:08:46;13.48;;;2.30;;
35981;SDS011;22058;0.000;0.000;2023-09-18T08:11:13;8.23;;;3.15;;
35981;SDS011;22058;0.000;0.000;2023-09-18T08:13:39;4.78;;;2.45;;
35981;SDS011;22058;0.000;0.000;2023-09-18T08:16:06;8.57;;;2.83;;
35981;SDS011;22058;0.000;0.000;2023-09-18T08:18:32;12.55;;;3.75;;
35981;SDS011;22058;0.000;0.000;2023-09-18T08:20:59;9.65;;;3.22;;
35981;SDS011;22058;0.000;0.000;2023-09-18T08:23:26;19.35;;;2.80;;
35981;SDS011;22058;0.000;0.000;2023-09-18T08:25:52;8.18;;;2.45;;
35981;SDS011;22058;0.000;0.000;2023-09-18T08:28:21;11.60;;;3.33;;
35981;SDS011;22058;0.000;0.000;2023-09-18T08:30:47;16.70;;;2.80;;
35981;SDS011;22058;0.000;0.000;2023-09-18T08:33:13;7.88;;;2.67;;
35981;SDS011;22058;0.000;0.000;2023-09-18T08:35:40;15.68;;;2.63;;
35981;SDS011;22058;0.000;0.000;2023-09-18T08:38:06;11.52;;;2.92;;
35981;SDS011;22058;0.000;0.000;2023-09-18T08:40:33;16.58;;;3.15;;
35981;SDS011;22058;0.000;0.000;2023-09-18T08:43:00;9.90;;;3.33;;
35981;SDS011;22058;0.000;0.000;2023-09-18T08:47:54;15.43;;;3.17;;
35981;SDS011;22058;0.000;0.000;2023-09-18T08:50:21;14.90;;;2.78;;
35981;SDS011;22058;0.000;0.000;2023-09-18T08:52:47;5.50;;;2.92;;
35981;SDS011;22058;0.000;0.000;2023-09-18T08:55:15;7.82;;;2.53;;
35981;SDS011;22058;0.000;0.000;2023-09-18T08:57:42;3.70;;;2.28;;
35981;SDS011;22058;0.000;0.000;2023-09-18T09:00:10;6.30;;;2.67;;
35981;SDS011;22058;0.000;0.000;2023-09-18T09:02:42;6.40;;;2.75;;
35981;SDS011;22058;0.000;0.000;2023-09-18T09:05:08;6.90;;;2.60;;
35981;SDS011;22058;0.000;0.000;2023-09-18T09:07:34;4.30;;;3.05;;
35981;SDS011;22058;0.000;0.000;2023-09-18T09:10:00;6.60;;;2.45;;
35981;SDS011;22058;0.000;0.000;2023-09-18T09:15:11;5.93;;;2.03;;
35981;SDS011;22058;0.000;0.000;2023-09-18T09:17:37;9.80;;;3.28;;
35981;SDS011;22058;0.000;0.000;2023-09-18T09:20:14;7.85;;;3.17;;
35981;SDS011;22058;0.000;0.000;2023-09-18T09:22:41;8.25;;;2.30;;
35981;SDS011;22058;0.000;0.000;2023-09-18T09:27:45;7.78;;;2.60;;
35981;SDS011;22058;0.000;0.000;2023-09-18T09:30:11;5.93;;;2.60;;
35981;SDS011;22058;0.000;0.000;2023-09-18T09:32:44;5.68;;;2.55;;
35981;SDS011;22058;0.000;0.000;2023-09-18T09:35:18;6.88;;;2.80;;
35981;SDS011;22058;0.000;0.000;2023-09-18T09:37:44;10.05;;;3.13;;
35981;SDS011;22058;0.000;0.000;2023-09-18T09:40:11;10.00;;;2.10;;
35981;SDS011;22058;0.000;0.000;2023-09-18T09:42:40;7.82;;;2.30;;
35981;SDS011;22058;0.000;0.000;2023-09-18T09:45:15;23.98;;;4.15;;
35981;SDS011;22058;0.000;0.000;2023-09-18T09:47:41;7.55;;;3.30;;
35981;SDS011;22058;0.000;0.000;2023-09-18T09:50:09;4.68;;;2.92;;
35981;SDS011;22058;0.000;0.000;2023-09-18T09:52:35;8.18;;;3.10;;
35981;SDS011;22058;0.000;0.000;2023-09-18T09:55:03;6.97;;;2.65;;
35981;SDS011;22058;0.000;0.000;2023-09-18T09:57:46;7.03;;;1.98;;
35981;SDS011;22058;0.000;0.000;2023-09-18T10:00:13;6.95;;;2.20;;
35981;SDS011;22058;0.000;0.000;2023-09-18T10:02:56;11.02;;;2.92;;
35981;SDS011;22058;0.000;0.000;2023-09-18T10:05:24;15.40;;;2.78;;
35981;SDS011;22058;0.000;0.000;2023-09-18T10:07:53;8.95;;;2.78;;
35981;SDS011;22058;0.000;0.000;2023-09-18T10:10:20;10.65;;;2.92;;
35981;SDS011;22058;0.000;0.000;2023-09-18T10:12:46;15.85;;;2.92;;
35981;SDS011;22058;0.000;0.000;2023-09-18T10:15:14;7.03;;;2.85;;
35981;SDS011;22058;0.000;0.000;2023-09-18T10:17:42;6.28;;;2.58;;
35981;SDS011;22058;0.000;0.000;2023-09-18T10:20:12;6.28;;;2.80;;
35981;SDS011;22058;0.000;0.000;2023-09-18T10:22:45;10.80;;;3.35;;
35981;SDS011;22058;0.000;0.000;2023-09-18T10:25:20;13.00;;;3.42;;
35981;SDS011;22058;0.000;0.000;2023-09-18T10:27:48;20.58;;;4.00;;
35981;SDS011;22058;0.000;0.000;2023-09-18T10:30:15;6.85;;;2.72;;
35981;SDS011;22058;0.000;0.000;2023-09-18T10:32:45;8.20;;;3.20;;
35981;SDS011;22058;0.000;0.000;2023-09-18T10:35:13;9.05;;;2.83;;
35981;SDS011;22058;0.000;0.000;2023-09-18T10:37:39;13.10;;;3.05;;
35981;SDS011;22058;0.000;0.000;2023-09-18T10:40:08;11.50;;;3.30;;
35981;SDS011;22058;0.000;0.000;2023-09-18T10:42:34;18.75;;;3.25;;
35981;SDS011;22058;0.000;0.000;2023-09-18T10:45:01;20.52;;;3.15;;
35981;SDS011;22058;0.000;0.000;2023-09-18T10:47:29;14.98;;;3.22;;
35981;SDS011;22058;0.000;0.000;2023-09-18T10:49:56;9.05;;;3.28;;
35981;SDS011;22058;0.000;0.000;2023-09-18T10:52:22;7.20;;;2.70;;
35981;SDS011;22058;0.000;0.000;2023-09-18T10:54:48;8.00;;;3.22;;
35981;SDS011;22058;0.000;0.000;2023-09-18T10:57:15;5.68;;;3.33;;
35981;SDS011;22058;0.000;0.000;2023-09-18T10:59:46;5.55;;;2.90;;
35981;SDS011;22058;0.000;0.000;2023-09-18T11:02:16;9.90;;;2.60;;
35981;SDS011;22058;0.000;0.000;2023-09-18T11:04:43;9.63;;;2.65;;
35981;SDS011;22058;0.000;0.000;2023-09-18T11:07:19;7.07;;;2.88;;
35981;SDS011;22058;0.000;0.000;2023-09-18T11:09:45;11.50;;;4.05;;
35981;SDS011;22058;0.000;0.000;2023-09-18T11:12:13;10.85;;;3.85;;
35981;SDS011;22058;0.000;0.000;2023-09-18T11:20:04;6.95;;;2.90;;
35981;SDS011;22058;0.000;0.000;2023-09-18T11:22:45;6.13;;;3.50;;
35981;SDS011;22058;0.000;0.000;2023-09-18T11:25:29;7.05;;;2.70;;
35981;SDS011;22058;0.000;0.000;2023-09-18T11:27:56;3.65;;;2.88;;
35981;SDS011;22058;0.000;0.000;2023-09-18T11:30:22;9.02;;;2.80;;
35981;SDS011;22058;0.000;0.000;2023-09-18T11:32:49;12.43;;;3.90;;
35981;SDS011;22058;0.000;0.000;2023-09-18T11:35:15;11.70;;;3.20;;
35981;SDS011;22058;0.000;0.000;2023-09-18T11:37:45;8.63;;;3.08;;
35981;SDS011;22058;0.000;0.000;2023-09-18T11:40:28;14.50;;;3.60;;
35981;SDS011;22058;0.000;0.000;2023-09-18T11:45:43;7.50;;;2.70;;
35981;SDS011;22058;0.000;0.000;2023-09-18T11:48:13;4.68;;;2.90;;
35981;SDS011;22058;0.000;0.000;2023-09-18T11:50:41;8.48;;;3.08;;
35981;SDS011;22058;0.000;0.000;2023-09-18T11:53:07;9.70;;;3.00;;
35981;SDS011;22058;0.000;0.000;2023-09-18T11:55:34;12.15;;;3.08;;
35981;SDS011;22058;0.000;0.000;2023-09-18T11:58:02;11.77;;;3.13;;
35981;SDS011;22058;0.000;0.000;2023-09-18T12:00:29;12.75;;;3.10;;
35981;SDS011;22058;0.000;0.000;2023-09-18T12:02:56;7.05;;;2.75;;
35981;SDS011;22058;0.000;0.000;2023-09-18T12:05:23;12.65;;;3.17;;
35981;SDS011;22058;0.000;0.000;2023-09-18T12:07:52;7.00;;;3.45;;
35981;SDS011;22058;0.000;0.000;2023-09-18T12:10:20;7.82;;;3.22;;
35981;SDS011;22058;0.000;0.000;2023-09-18T12:12:46;18.83;;;3.03;;
35981;SDS011;22058;0.000;0.000;2023-09-18T12:15:13;12.68;;;3.00;;
35981;SDS011;22058;0.000;0.000;2023-09-18T12:17:40;9.52;;;2.80;;
35981;SDS011;22058;0.000;0.000;2023-09-18T12:20:06;9.48;;;4.05;;
35981;SDS011;22058;0.000;0.000;2023-09-18T12:22:33;13.30;;;4.53;;
35981;SDS011;22058;0.000;0.000;2023-09-18T12:25:14;7.13;;;3.40;;
35981;SDS011;22058;0.000;0.000;2023-09-18T12:27:42;10.17;;;3.53;;
35981;SDS011;22058;0.000;0.000;2023-09-18T12:30:08;7.50;;;2.95;;
35981;SDS011;22058;0.000;0.000;2023-09-18T12:32:38;5.85;;;2.95;;
35981;SDS011;22058;0.000;0.000;2023-09-18T12:35:08;14.15;;;3.40;;
35981;SDS011;22058;0.000;0.000;2023-09-18T12:37:34;4.78;;;2.60;;
35981;SDS011;22058;0.000;0.000;2023-09-18T12:40:01;10.65;;;3.42;;
35981;SDS011;22058;0.000;0.000;2023-09-18T12:42:32;8.90;;;3.13;;
35981;SDS011;22058;0.000;0.000;2023-09-18T12:44:58;12.25;;;3.17;;
35981;SDS011;22058;0.000;0.000;2023-09-18T12:47:25;5.00;;;3.20;;
35981;SDS011;22058;0.000;0.000;2023-09-18T12:49:51;8.88;;;2.70;;
35981;SDS011;22058;0.000;0.000;2023-09-18T12:52:21;8.13;;;2.88;;
35981;SDS011;22058;0.000;0.000;2023-09-18T12:54:47;8.00;;;3.58;;
35981;SDS011;22058;0.000;0.000;2023-09-18T12:57:19;13.52;;;3.28;;
35981;SDS011;22058;0.000;0.000;2023-09-18T12:59:45;8.43;;;3.17;;
35981;SDS011;22058;0.000;0.000;2023-09-18T13:02:14;5.03;;;2.75;;
35981;SDS011;22058;0.000;0.000;2023-09-18T13:04:40;7.03;;;3.72;;
35981;SDS011;22058;0.000;0.000;2023-09-18T13:07:08;9.85;;;2.70;;
35981;SDS011;22058;0.000;0.000;2023-09-18T13:09:35;9.05;;;2.75;;
35981;SDS011;22058;0.000;0.000;2023-09-18T13:12:02;9.07;;;2.70;;
35981;SDS011;22058;0.000;0.000;2023-09-18T13:14:29;7.97;;;3.13;;
35981;SDS011;22058;0.000;0.000;2023-09-18T13:17:01;7.45;;;3.50;;
35981;SDS011;22058;0.000;0.000;2023-09-18T13:19:30;5.80;;;3.30;;
35981;SDS011;22058;0.000;0.000;2023-09-18T13:21:56;5.07;;;3.38;;
35981;SDS011;22058;0.000;0.000;2023-09-18T13:24:24;10.45;;;3.00;;
35981;SDS011;22058;0.000;0.000;2023-09-18T13:26:50;6.68;;;2.80;;
35981;SDS011;22058;0.000;0.000;2023-09-18T13:29:16;8.43;;;3.08;;
35981;SDS011;22058;0.000;0.000;2023-09-18T13:31:42;7.68;;;3.45;;
35981;SDS011;22058;0.000;0.000;2023-09-18T13:34:08;7.18;;;3.25;;
35981;SDS011;22058;0.000;0.000;2023-09-18T13:36:34;6.00;;;2.92;;
35981;SDS011;22058;0.000;0.000;2023-09-18T13:39:02;8.88;;;2.65;;
35981;SDS011;22058;0.000;0.000;2023-09-18T13:41:29;9.50;;;2.80;;
35981;SDS011;22058;0.000;0.000;2023-09-18T13:43:56;8.15;;;2.92;;
35981;SDS011;22058;0.000;0.000;2023-09-18T13:46:22;5.32;;;2.92;;
35981;SDS011;22058;0.000;0.000;2023-09-18T13:48:49;8.15;;;3.25;;
35981;SDS011;22058;0.000;0.000;2023-09-18T13:51:16;13.70;;;3.15;;
35981;SDS011;22058;0.000;0.000;2023-09-18T13:53:42;4.47;;;2.58;;
35981;SDS011;22058;0.000;0.000;2023-09-18T13:56:08;5.88;;;2.40;;
35981;SDS011;22058;0.000;0.000;2023-09-18T13:58:34;11.65;;;2.90;;
35981;SDS011;22058;0.000;0.000;2023-09-18T14:01:06;7.85;;;2.75;;
35981;SDS011;22058;0.000;0.000;2023-09-18T14:03:32;11.23;;;2.97;;
35981;SDS011;22058;0.000;0.000;2023-09-18T14:05:59;14.13;;;3.35;;
35981;SDS011;22058;0.000;0.000;2023-09-18T14:08:25;10.40;;;2.85;;
35981;SDS011;22058;0.000;0.000;2023-09-18T14:10:51;13.27;;;4.55;;
35981;SDS011;22058;0.000;0.000;2023-09-18T14:13:17;8.35;;;2.53;;
35981;SDS011;22058;0.000;0.000;2023-09-18T14:15:43;12.20;;;3.28;;
35981;SDS011;22058;0.000;0.000;2023-09-18T14:18:10;8.43;;;2.97;;
35981;SDS011;22058;0.000;0.000;2023-09-18T14:20:38;7.30;;;3.10;;
35981;SDS011;22058;0.000;0.000;2023-09-18T14:23:06;8.13;;;2.95;;
35981;SDS011;22058;0.000;0.000;2023-09-18T14:25:32;10.50;;;3.42;;
35981;SDS011;22058;0.000;0.000;2023-09-18T14:27:58;7.72;;;3.00;;
35981;SDS011;22058;0.000;0.000;2023-09-18T14:30:25;6.18;;;3.38;;
35981;SDS011;22058;0.000;0.000;2023-09-18T14:32:56;8.38;;;2.75;;
35981;SDS011;22058;0.000;0.000;2023-09-18T14:35:22;13.90;;;3.28;;
35981;SDS011;22058;0.000;0.000;2023-09-18T14:37:48;6.53;;;2.42;;
35981;SDS011;22058;0.000;0.000;2023-09-18T14:40:15;8.43;;;2.83;;
35981;SDS011;22058;0.000;0.000;2023-09-18T14:42:41;8.07;;;2.63;;
35981;SDS011;22058;0.000;0.000;2023-09-18T14:45:07;10.38;;;3.72;;
35981;SDS011;22058;0.000;0.000;2023-09-18T14:47:34;7.30;;;3.10;;
35981;SDS011;22058;0.000;0.000;2023-09-18T14:50:03;3.58;;;2.30;;
35981;SDS011;22058;0.000;0.000;2023-09-18T14:52:29;10.95;;;2.30;;
35981;SDS011;22058;0.000;0.000;2023-09-18T14:54:57;9.45;;;3.13;;
35981;SDS011;22058;0.000;0.000;2023-09-18T14:57:25;6.68;;;3.17;;
35981;SDS011;22058;0.000;0.000;2023-09-18T14:59:52;6.40;;;2.72;;
35981;SDS011;22058;0.000;0.000;2023-09-18T15:02:18;7.45;;;2.95;;
35981;SDS011;22058;0.000;0.000;2023-09-18T15:04:45;10.10;;;2.85;;
35981;SDS011;22058;0.000;0.000;2023-09-18T15:07:12;13.00;;;2.83;;
35981;SDS011;22058;0.000;0.000;2023-09-18T15:09:39;7.22;;;2.95;;
35981;SDS011;22058;0.000;0.000;2023-09-18T15:12:05;3.10;;;2.17;;
35981;SDS011;22058;0.000;0.000;2023-09-18T15:14:36;6.93;;;2.80;;
35981;SDS011;22058;0.000;0.000;2023-09-18T15:17:02;9.73;;;2.97;;
35981;SDS011;22058;0.000;0.000;2023-09-18T15:19:28;4.90;;;2.85;;
35981;SDS011;22058;0.000;0.000;2023-09-18T15:21:55;9.20;;;2.90;;